This is the latest recevied weather packets stored in our database for station/object N4OOJ-13. If no packets are shown the sender has not sent any weather packets the latest 10 day(s).
| Time | Temp. | Humidity | Pressure | Rain* | Wind** | Luminosity | Snow |
|---|---|---|---|---|---|---|---|
| 1788036618 | 30.56° C | 80% | 1021.5 hPa | 0 mm | - | - | - |
| 1788036019 | 30.56° C | 78% | 1021.5 hPa | 0 mm | - | - | - |
| 1788035433 | 30° C | 78% | 1021.5 hPa | 0 mm | - | - | - |
| 1788034827 | 30.56° C | 78% | 1021.4 hPa | 0 mm | - | - | - |
| 1788034227 | 30° C | 80% | 1021.4 hPa | 0 mm | - | - | - |
| 1788033627 | 29.44° C | 83% | 1021.4 hPa | 0 mm | - | - | - |
| 1788033026 | 29.44° C | 84% | 1021.5 hPa | 0 mm | - | - | - |
| 1788032426 | 28.89° C | 85% | 1021.6 hPa | 0 mm | - | - | - |
| 1788031825 | 29.44° C | 82% | 1021.7 hPa | 0 mm | - | - | - |
| 1788031225 | 29.44° C | 82% | 1021.7 hPa | 0 mm | - | - | - |
| 1788030619 | 29.44° C | 84% | 1021.8 hPa | 0 mm | - | - | - |
| 1788030031 | 29.44° C | 81% | 1021.9 hPa | 0 mm | - | - | - |
| 1788029432 | 30° C | 79% | 1021.9 hPa | 0 mm | - | - | - |
| 1788028826 | 30° C | 78% | 1022 hPa | 0 mm | - | - | - |
| 1788028220 | 30° C | 79% | 1022.1 hPa | 0 mm | - | - | - |
| 1788027633 | 29.44° C | 82% | 1022 hPa | 0 mm | - | - | - |
| 1788027016 | 28.89° C | 82% | 1022.2 hPa | 0 mm | - | - | - |
| 1788026416 | 29.44° C | 79% | 1022.3 hPa | 0 mm | - | - | - |
| 1788025833 | 30.56° C | 74% | 1022.4 hPa | 0 mm | - | - | - |
| 1788025215 | 30° C | 80% | 1022.5 hPa | 0 mm | - | - | - |
| 1788024623 | 28.89° C | 82% | 1022.6 hPa | 0 mm | - | - | - |
| 1788024016 | 30° C | 77% | 1022.7 hPa | 0.25 mm | - | - | - |
| 1788023418 | 31.11° C | 75% | 1022.7 hPa | 0.25 mm | - | - | - |
| 1788022831 | 30° C | 78% | 1022.7 hPa | 0.25 mm | - | - | - |
| 1788022224 | 30° C | 78% | 1022.7 hPa | 0.25 mm | - | - | - |
* Rain latest hour (hover to see other rain measurements)
** Current wind speed in m/s (hover to see current wind gust speed)